createdAt,value
2019-05-22T00:00:41.160Z,28.97
2019-05-22T00:03:12.727Z,29.63
2019-05-22T00:05:44.959Z,26.27
2019-05-22T00:08:17.539Z,30.93
2019-05-22T00:10:49.517Z,32.40
2019-05-22T00:13:22.782Z,31.93
2019-05-22T00:15:54.765Z,27.30
2019-05-22T00:18:25.704Z,31.07
2019-05-22T00:20:57.550Z,31.07
2019-05-22T00:23:28.514Z,32.40
2019-05-22T00:25:58.481Z,30.73
2019-05-22T00:28:30.381Z,30.67
2019-05-22T00:31:01.352Z,32.70
2019-05-22T00:33:34.475Z,28.37
2019-05-22T00:36:04.660Z,31.37
2019-05-22T00:38:36.184Z,32.13
2019-05-22T00:41:07.631Z,31.97
2019-05-22T00:43:42.390Z,31.77
2019-05-22T00:46:16.853Z,33.53
2019-05-22T00:48:47.764Z,29.73
2019-05-22T00:51:47.520Z,30.70
2019-05-22T00:54:34.834Z,27.13
2019-05-22T00:57:34.868Z,26.60
2019-05-22T01:00:21.565Z,30.07
2019-05-22T01:02:54.348Z,30.17
2019-05-22T01:05:24.693Z,31.60
2019-05-22T01:07:56.782Z,31.97
2019-05-22T01:10:29.581Z,30.43
2019-05-22T01:13:02.918Z,35.47
2019-05-22T01:15:35.064Z,29.90
2019-05-22T01:18:08.311Z,30.33
2019-05-22T01:20:42.004Z,29.70
2019-05-22T01:23:17.929Z,35.30
2019-05-22T01:25:48.203Z,30.83
2019-05-22T01:28:19.603Z,32.87
2019-05-22T01:31:00.808Z,33.73
2019-05-22T01:33:39.245Z,38.20
2019-05-22T01:36:30.140Z,38.53
2019-05-22T01:39:25.974Z,38.70
2019-05-22T01:42:00.776Z,38.47
2019-05-22T01:44:31.700Z,37.77
2019-05-22T01:47:06.887Z,37.77
2019-05-22T01:49:43.162Z,44.10
2019-05-22T01:52:13.295Z,39.83
2019-05-22T01:54:45.247Z,41.03
2019-05-22T01:57:18.058Z,37.57
2019-05-22T01:59:48.318Z,35.83
2019-05-22T02:02:19.207Z,38.87
2019-05-22T02:04:49.157Z,29.10
2019-05-22T02:07:20.693Z,35.23
2019-05-22T02:09:52.263Z,34.90
2019-05-22T02:12:41.120Z,33.03
2019-05-22T02:15:12.759Z,27.20
2019-05-22T02:17:44.751Z,29.17
2019-05-22T02:20:16.142Z,33.20
2019-05-22T02:22:48.155Z,30.63
2019-05-22T02:25:18.986Z,28.40
2019-05-22T02:27:50.519Z,30.53
2019-05-22T02:30:23.185Z,30.15
2019-05-22T02:32:55.199Z,29.90
2019-05-22T02:52:55.447Z,23.10
2019-05-22T02:55:27.391Z,26.80
2019-05-22T02:57:57.555Z,23.17
2019-05-22T03:00:31.116Z,21.00
2019-05-22T03:03:03.071Z,25.13
2019-05-22T03:05:33.592Z,24.70
2019-05-22T03:08:04.145Z,24.57
2019-05-22T03:10:34.572Z,28.07
2019-05-22T03:13:06.201Z,26.30
2019-05-22T03:15:36.563Z,31.07
2019-05-22T03:18:08.591Z,28.37
2019-05-22T03:20:42.000Z,28.50
2019-05-22T03:23:39.049Z,29.60
2019-05-22T03:26:10.961Z,30.13
2019-05-22T03:28:41.907Z,28.60
2019-05-22T03:31:13.637Z,30.97
2019-05-22T03:33:44.204Z,28.73
2019-05-22T03:36:20.820Z,31.77
2019-05-22T03:38:51.713Z,29.57
2019-05-22T03:41:21.626Z,30.07
2019-05-22T03:43:53.270Z,34.43
2019-05-22T06:38:05.053Z,13.20
2019-05-22T06:40:35.933Z,14.60
2019-05-22T07:05:50.115Z,11.80
2019-05-22T07:13:19.709Z,15.05
2019-05-22T07:15:52.134Z,15.05
2019-05-22T07:18:26.338Z,17.57
2019-05-22T07:20:57.940Z,15.53
2019-05-22T07:23:32.882Z,15.70
2019-05-22T07:26:03.236Z,16.07
2019-05-22T07:28:33.701Z,14.53
2019-05-22T07:31:04.332Z,14.50
2019-05-22T07:33:35.105Z,16.60
2019-05-22T07:36:09.998Z,13.60
2019-05-22T07:41:08.252Z,13.70
2019-05-22T07:43:41.559Z,14.95
2019-05-22T07:46:09.907Z,14.35
2019-05-22T07:48:41.452Z,16.10
2019-05-22T07:51:12.454Z,14.70
2019-05-22T07:53:42.918Z,12.70
2019-05-22T07:56:15.060Z,12.75
2019-05-22T07:58:45.401Z,13.60
2019-05-22T08:01:17.279Z,13.20
2019-05-22T08:03:49.319Z,13.45
2019-05-22T08:06:19.952Z,12.40
2019-05-22T08:08:52.390Z,14.17
2019-05-22T08:11:25.114Z,15.10
2019-05-22T08:13:57.060Z,13.73
2019-05-22T08:16:29.205Z,16.00
2019-05-22T08:18:59.220Z,15.33
2019-05-22T08:21:30.062Z,16.60
2019-05-22T08:24:00.588Z,19.63
2019-05-22T08:26:32.258Z,17.40
2019-05-22T08:29:02.802Z,15.40
2019-05-22T08:31:33.726Z,16.55
2019-05-22T08:34:05.260Z,16.05
2019-05-22T08:36:38.634Z,20.67
2019-05-22T08:39:09.923Z,19.00
2019-05-22T08:41:42.735Z,17.35
2019-05-22T08:44:16.704Z,19.20
2019-05-22T08:46:46.171Z,20.00
2019-05-22T08:49:17.161Z,20.07
2019-05-22T08:51:47.093Z,20.70
2019-05-22T08:54:17.935Z,24.75
2019-05-22T08:56:51.337Z,18.77
2019-05-22T08:59:21.958Z,23.03
2019-05-22T09:01:52.024Z,27.33
2019-05-22T09:04:22.573Z,23.00
2019-05-22T09:06:52.786Z,27.25
2019-05-22T09:09:23.644Z,21.45
2019-05-22T09:11:53.695Z,20.90
2019-05-22T09:14:24.173Z,22.00
2019-05-22T09:16:54.538Z,20.43
2019-05-22T09:19:24.650Z,22.60
2019-05-22T09:21:55.169Z,23.80
2019-05-22T09:24:25.808Z,20.63
2019-05-22T09:26:55.730Z,20.60
2019-05-22T09:29:25.760Z,22.25
2019-05-22T09:31:55.883Z,24.67
2019-05-22T09:34:26.613Z,25.87
2019-05-22T09:36:56.550Z,26.33
2019-05-22T09:39:26.509Z,25.15
2019-05-22T09:41:56.815Z,23.20
2019-05-22T09:44:26.857Z,22.85
2019-05-22T09:46:56.971Z,24.60
2019-05-22T09:49:27.542Z,22.50
2019-05-22T09:51:57.856Z,20.85
2019-05-22T09:54:28.736Z,20.90
2019-05-22T09:56:58.905Z,22.07
2019-05-22T09:59:29.158Z,18.87
2019-05-22T10:01:59.071Z,21.37
2019-05-22T10:04:30.571Z,21.10
2019-05-22T10:07:00.799Z,22.10
2019-05-22T10:09:30.945Z,18.43
2019-05-22T10:12:02.683Z,20.57
2019-05-22T10:14:33.320Z,23.33
2019-05-22T10:17:03.756Z,20.40
2019-05-22T10:19:34.227Z,22.00
2019-05-22T10:22:05.480Z,20.53
2019-05-22T10:24:35.974Z,17.95
2019-05-22T10:27:07.965Z,19.97
2019-05-22T10:29:38.081Z,19.80
2019-05-22T10:32:08.616Z,18.23
2019-05-22T10:34:38.667Z,22.00
2019-05-22T10:37:10.730Z,18.63
2019-05-22T10:39:41.271Z,21.23
2019-05-22T10:42:11.978Z,19.50
2019-05-22T10:44:41.925Z,19.97
2019-05-22T10:47:11.888Z,20.70
2019-05-22T10:49:42.610Z,17.10
2019-05-22T10:52:12.569Z,17.33
2019-05-22T10:54:42.524Z,18.80
2019-05-22T10:57:13.063Z,20.80
2019-05-22T11:02:12.743Z,17.30
2019-05-22T11:04:43.874Z,18.77
2019-05-22T11:07:14.202Z,16.83
2019-05-22T11:09:44.676Z,16.87
2019-05-22T11:12:15.402Z,17.30
2019-05-22T11:14:47.056Z,16.43
2019-05-22T11:17:17.521Z,17.47
2019-05-22T11:19:47.770Z,16.43
2019-05-22T11:22:18.626Z,16.10
2019-05-22T11:24:48.866Z,16.73
2019-05-22T11:27:19.142Z,16.10
2019-05-22T11:29:49.986Z,16.43
2019-05-22T11:32:20.216Z,17.03
2019-05-22T11:34:50.156Z,18.63
2019-05-22T11:37:20.848Z,20.53
2019-05-22T11:39:51.077Z,19.40
2019-05-22T11:42:21.764Z,19.20
2019-05-22T11:44:52.697Z,19.10
2019-05-22T11:47:23.161Z,17.43
2019-05-22T11:49:54.439Z,15.77
2019-05-22T11:52:24.780Z,16.00
2019-05-22T11:54:55.177Z,16.40
2019-05-22T11:57:25.606Z,16.57
2019-05-22T11:59:55.948Z,17.40
2019-05-22T12:02:26.372Z,16.77
2019-05-22T12:04:57.591Z,15.63
2019-05-22T12:07:28.537Z,16.87
2019-05-22T12:09:58.991Z,15.17
2019-05-22T12:12:30.238Z,17.63
2019-05-22T12:15:01.182Z,20.60
2019-05-22T12:17:38.300Z,16.83
2019-05-22T12:20:04.836Z,17.40
2019-05-22T12:22:34.838Z,15.77
2019-05-22T12:25:05.318Z,17.60
2019-05-22T12:27:36.380Z,15.97
2019-05-22T12:30:07.512Z,14.80
2019-05-22T12:32:38.234Z,16.03
2019-05-22T12:35:08.305Z,16.40
2019-05-22T12:37:38.643Z,17.17
2019-05-22T12:40:11.839Z,15.37
2019-05-22T12:42:41.991Z,17.20
2019-05-22T12:45:13.889Z,15.40
2019-05-22T12:47:44.017Z,16.17
2019-05-22T12:50:16.819Z,15.00
2019-05-22T12:52:49.663Z,15.10
2019-05-22T12:55:20.512Z,14.53
2019-05-22T12:57:51.433Z,15.60
2019-05-22T13:00:25.747Z,14.90
2019-05-22T13:02:56.480Z,14.03
2019-05-22T13:05:27.567Z,13.87
2019-05-22T13:07:58.412Z,15.23
2019-05-22T13:10:29.161Z,13.50
2019-05-22T13:12:59.390Z,15.27
2019-05-22T13:15:30.661Z,13.27
2019-05-22T13:18:01.200Z,15.30
2019-05-22T13:20:42.388Z,14.70
2019-05-22T13:23:09.960Z,13.90
2019-05-22T13:25:42.282Z,14.43
2019-05-22T13:28:16.607Z,13.67
2019-05-22T13:30:51.040Z,13.33
2019-05-22T13:33:27.514Z,13.37
2019-05-22T13:35:58.095Z,12.97
2019-05-22T13:38:28.442Z,14.00
2019-05-22T13:40:58.988Z,12.73
2019-05-22T13:43:30.104Z,13.73
2019-05-22T13:46:00.872Z,13.93
2019-05-22T13:48:30.926Z,14.37
2019-05-22T13:51:01.983Z,16.87
2019-05-22T13:53:32.699Z,14.77
2019-05-22T13:56:04.534Z,14.67
2019-05-22T13:58:35.700Z,12.97
2019-05-22T14:01:06.065Z,14.60
2019-05-22T14:03:36.319Z,14.00
2019-05-22T14:06:06.860Z,15.40
2019-05-22T14:08:36.921Z,15.60
2019-05-22T14:11:08.387Z,13.83
2019-05-22T14:13:38.901Z,14.30
2019-05-22T14:16:09.543Z,17.50
2019-05-22T14:18:39.480Z,13.03
2019-05-22T14:21:09.638Z,14.20
2019-05-22T14:23:39.621Z,14.17
2019-05-22T14:26:09.908Z,12.90
2019-05-22T14:28:41.584Z,12.67
2019-05-22T14:31:11.629Z,12.50
2019-05-22T14:33:41.792Z,13.07
2019-05-22T14:36:12.193Z,14.53
2019-05-22T14:38:43.086Z,13.57
2019-05-22T14:41:14.696Z,12.60
2019-05-22T14:43:44.837Z,13.40
2019-05-22T14:46:15.566Z,14.10
2019-05-22T14:48:45.628Z,13.87
2019-05-22T14:51:16.410Z,12.27
2019-05-22T14:53:48.511Z,12.27
2019-05-22T14:56:19.537Z,12.07
2019-05-22T14:58:49.654Z,11.13
2019-05-22T15:01:21.122Z,13.07
2019-05-22T15:03:52.066Z,11.40
2019-05-22T15:06:22.495Z,14.07
2019-05-22T15:08:52.453Z,11.43
2019-05-22T15:11:22.405Z,12.47
2019-05-22T15:13:53.161Z,14.60
2019-05-22T15:16:23.439Z,13.03
2019-05-22T15:18:54.018Z,15.03
2019-05-22T15:21:24.712Z,11.50
2019-05-22T15:23:55.037Z,13.63
2019-05-22T15:26:25.274Z,12.43
2019-05-22T15:28:55.430Z,12.57
2019-05-22T15:31:25.458Z,13.13
2019-05-22T15:33:56.096Z,11.23
2019-05-22T15:36:27.023Z,11.43
2019-05-22T15:38:57.864Z,11.10
2019-05-22T15:41:28.495Z,11.07
2019-05-22T15:43:59.535Z,9.83
2019-05-22T15:46:32.725Z,12.07
2019-05-22T15:49:05.833Z,12.03
2019-05-22T15:51:37.223Z,9.43
2019-05-22T15:54:08.697Z,8.90
2019-05-22T15:56:40.046Z,9.13
2019-05-22T15:59:12.014Z,9.13
2019-05-22T16:01:42.842Z,8.93
2019-05-22T16:04:14.841Z,9.53
2019-05-22T16:06:48.078Z,8.80
2019-05-22T16:09:18.969Z,10.13
2019-05-22T16:11:51.958Z,8.97
2019-05-22T16:14:22.977Z,8.67
2019-05-22T16:16:53.955Z,8.87
2019-05-22T16:19:27.354Z,9.10
2019-05-22T16:22:01.841Z,8.77
2019-05-22T16:24:32.206Z,8.87
2019-05-22T16:27:02.380Z,8.10
2019-05-22T16:29:32.912Z,12.83
2019-05-22T16:32:05.946Z,8.33
2019-05-22T16:34:37.467Z,9.10
2019-05-22T16:37:07.903Z,9.13
2019-05-22T16:39:40.086Z,9.10
2019-05-22T16:42:10.625Z,8.33
2019-05-22T16:44:41.486Z,11.33
2019-05-22T16:47:12.858Z,8.90
2019-05-22T16:49:43.107Z,8.80
2019-05-22T16:52:15.437Z,8.57
2019-05-22T16:54:47.035Z,8.30
2019-05-22T16:57:17.764Z,8.20
2019-05-22T16:59:47.813Z,7.90
2019-05-22T17:02:18.930Z,9.07
2019-05-22T17:04:50.490Z,8.27
2019-05-22T17:07:21.210Z,11.67
2019-05-22T17:09:53.548Z,8.07
2019-05-22T17:12:25.579Z,9.57
2019-05-22T17:14:55.668Z,7.53
2019-05-22T17:17:27.093Z,8.43
2019-05-22T17:19:57.427Z,9.03
2019-05-22T17:22:27.982Z,9.77
2019-05-22T17:24:58.549Z,8.77
2019-05-22T17:27:29.899Z,8.80
2019-05-22T17:30:00.538Z,11.20
2019-05-22T17:32:31.358Z,9.57
2019-05-22T17:35:01.895Z,10.23
2019-05-22T17:37:33.692Z,9.97
2019-05-22T17:40:06.178Z,11.17
2019-05-22T17:42:37.172Z,9.43
2019-05-22T17:45:08.433Z,12.60
2019-05-22T17:47:38.390Z,8.90
2019-05-22T17:50:25.202Z,10.60
2019-05-22T17:52:40.968Z,10.20
2019-05-22T17:55:12.808Z,8.87
2019-05-22T17:57:43.507Z,8.77
2019-05-22T18:00:24.765Z,9.20
2019-05-22T18:02:54.854Z,10.07
2019-05-22T18:05:26.078Z,11.00
2019-05-22T18:07:56.549Z,11.03
2019-05-22T18:10:27.242Z,10.03
2019-05-22T18:12:57.466Z,11.17
2019-05-22T18:15:27.699Z,9.83
2019-05-22T18:17:58.138Z,9.07
2019-05-22T18:20:41.754Z,10.03
2019-05-22T18:23:01.292Z,8.77
2019-05-22T18:25:32.235Z,10.47
2019-05-22T18:28:05.051Z,8.83
2019-05-22T18:30:37.969Z,9.13
2019-05-22T18:33:08.031Z,9.83
2019-05-22T18:35:38.061Z,12.30
2019-05-22T18:38:08.107Z,9.60
2019-05-22T18:40:38.719Z,8.80
2019-05-22T18:43:09.213Z,9.33
2019-05-22T18:45:39.995Z,8.40
2019-05-22T18:48:10.241Z,8.73
2019-05-22T18:50:40.362Z,11.47
2019-05-22T18:53:10.318Z,9.07
2019-05-22T18:55:40.815Z,8.47
2019-05-22T18:58:10.839Z,9.10
2019-05-22T19:00:40.831Z,9.57
2019-05-22T19:03:10.970Z,10.27
2019-05-22T19:05:41.568Z,9.90
2019-05-22T19:08:12.453Z,11.83
2019-05-22T19:10:42.598Z,10.67
2019-05-22T19:13:14.624Z,9.60
2019-05-22T19:15:45.094Z,10.27
2019-05-22T19:18:15.351Z,10.30
2019-05-22T19:20:45.469Z,10.13
2019-05-22T19:23:15.593Z,10.73
2019-05-22T19:25:45.538Z,10.27
2019-05-22T19:28:16.136Z,10.20
2019-05-22T19:30:46.075Z,9.53
2019-05-22T19:33:15.989Z,8.43
2019-05-22T19:35:45.843Z,8.77
2019-05-22T19:38:16.155Z,8.83
2019-05-22T19:40:46.530Z,8.70
2019-05-22T19:43:17.127Z,11.23
2019-05-22T19:45:47.483Z,10.53
2019-05-22T19:48:18.112Z,8.90
2019-05-22T19:50:48.974Z,10.77
2019-05-22T19:53:20.066Z,10.33
2019-05-22T19:55:50.510Z,10.33
2019-05-22T19:58:21.998Z,10.10
2019-05-22T20:00:52.596Z,11.33
2019-05-22T20:03:25.384Z,9.03
2019-05-22T20:05:55.428Z,10.50
2019-05-22T20:08:26.267Z,10.50
2019-05-22T20:10:56.416Z,12.47
2019-05-22T20:13:26.666Z,9.80
2019-05-22T20:15:57.560Z,9.47
2019-05-22T20:18:27.485Z,9.90
2019-05-22T20:20:57.853Z,8.77
2019-05-22T20:23:36.203Z,10.07
2019-05-22T20:26:01.021Z,9.47
2019-05-22T20:28:31.209Z,9.80
2019-05-22T20:31:01.273Z,10.17
2019-05-22T20:33:31.891Z,10.23
2019-05-22T20:36:02.157Z,11.27
2019-05-22T20:38:32.379Z,9.00
2019-05-22T20:41:02.264Z,10.37
2019-05-22T20:43:33.944Z,11.45
2019-05-22T20:46:05.836Z,11.27
2019-05-22T20:48:37.255Z,10.17
2019-05-22T20:51:09.700Z,9.80
2019-05-22T20:53:53.577Z,12.10
2019-05-22T20:56:13.866Z,9.97
2019-05-22T20:58:44.769Z,10.07
2019-05-22T21:01:15.117Z,10.07
2019-05-22T21:03:45.222Z,10.73
2019-05-22T21:06:17.021Z,12.50
2019-05-22T21:08:47.259Z,11.70
2019-05-22T21:11:20.825Z,10.47
2019-05-22T21:13:51.255Z,10.43
2019-05-22T21:16:21.807Z,11.93
2019-05-22T21:18:54.480Z,10.73
2019-05-22T21:21:26.085Z,9.87
2019-05-22T21:24:09.569Z,13.00
2019-05-22T21:26:28.651Z,10.33
2019-05-22T21:28:58.652Z,11.43
2019-05-22T21:31:28.814Z,10.03
2019-05-22T21:33:58.753Z,10.90
2019-05-22T21:36:29.372Z,11.00
2019-05-22T21:39:00.090Z,10.53
2019-05-22T21:41:30.854Z,10.93
2019-05-22T21:44:01.021Z,12.63
2019-05-22T21:46:31.268Z,11.03
2019-05-22T21:49:01.580Z,12.93
2019-05-22T21:51:31.455Z,11.23
2019-05-22T21:54:01.705Z,11.33
2019-05-22T21:56:31.649Z,11.00
2019-05-22T21:59:01.584Z,9.70
2019-05-22T22:01:35.844Z,9.93
2019-05-22T22:04:20.935Z,11.53
2019-05-22T22:06:53.742Z,12.37
2019-05-22T22:09:25.785Z,10.73
2019-05-22T22:11:57.047Z,11.13
2019-05-22T22:14:27.413Z,11.20
2019-05-22T22:16:57.633Z,10.20
2019-05-22T22:19:30.311Z,10.00
2019-05-22T22:22:00.760Z,11.43
2019-05-22T22:24:31.771Z,11.53
2019-05-22T22:27:02.217Z,10.20
2019-05-22T22:29:32.984Z,11.97
2019-05-22T22:32:04.869Z,10.73
2019-05-22T22:34:53.883Z,10.30
2019-05-22T22:37:24.706Z,9.50
2019-05-22T22:39:56.606Z,12.70
2019-05-22T22:42:29.493Z,9.70
2019-05-22T22:44:59.814Z,12.03
2019-05-22T22:47:41.512Z,11.17
2019-05-22T22:50:12.915Z,9.77
2019-05-22T22:52:44.993Z,10.10
2019-05-22T22:55:17.369Z,9.43
2019-05-22T22:57:49.518Z,10.33
2019-05-22T23:00:26.844Z,11.87
2019-05-22T23:02:59.148Z,9.40
2019-05-22T23:05:29.091Z,13.60
2019-05-22T23:08:00.224Z,10.63
2019-05-22T23:10:31.275Z,9.07
2019-05-22T23:13:01.563Z,9.20
2019-05-22T23:15:31.655Z,9.13
2019-05-22T23:18:03.422Z,8.60
2019-05-22T23:20:31.928Z,9.83
2019-05-22T23:23:00.494Z,8.70
2019-05-22T23:25:32.611Z,9.17
2019-05-22T23:28:04.644Z,9.97
2019-05-22T23:30:34.960Z,9.00
2019-05-22T23:33:07.006Z,8.67
2019-05-22T23:35:37.333Z,12.20
2019-05-22T23:38:08.867Z,9.30
2019-05-22T23:40:38.896Z,8.73
2019-05-22T23:43:10.028Z,8.80
2019-05-22T23:45:40.618Z,10.07
2019-05-22T23:48:14.254Z,9.37
2019-05-22T23:50:44.490Z,9.10
2019-05-22T23:53:53.188Z,10.00
2019-05-22T23:56:25.719Z,9.23
2019-05-22T23:58:58.379Z,9.67
